Daisy Mae — WDJ6432 — position and weather

sailwx.info

Track history (hours):
 
Tides and Currents Weather Stations Pressure Air Temp Water Temp Dewpoint Dewpoint Depression Visibility Wind Speed Wind Dir Waves Ship Positions

Daisy Mae

Owner: Coeymans Marine Towing, LLC, Coeymans, NY. More information available from US FCC via Universal Licensing System and Coast Guard Vessel Documentation Center.

Last reported at 2018-Aug-16 08:30 UTC. Time now 2018-Aug-16 08:44 UTC.
Position N 39°35' W 075°29'.

MMSI: 367797720.

Date/timePositionNaut miles runAvg speedWind from/ knotsBaromVisibWave heightAir tempDewpointWater temp
2018-Aug-16 08:30N 39°35' W 075°29'0 0.0
2018-Aug-16 08:00N 39°35' W 075°29'0 0.0
2018-Aug-16 07:30N 39°35' W 075°29'0 0.0
2018-Aug-16 06:59N 39°35' W 075°29'0 0.0
2018-Aug-16 06:30N 39°35' W 075°29'0 0.0
2018-Aug-16 06:01N 39°35' W 075°29'0 0.0
2018-Aug-16 05:30N 39°35' W 075°29'0 0.0
2018-Aug-16 05:01N 39°35' W 075°29'0 0.0
2018-Aug-16 04:30N 39°35' W 075°29'0 0.0
2018-Aug-16 04:00N 39°35' W 075°29'0 0.0
2018-Aug-16 03:30N 39°35' W 075°29'0 0.0
2018-Aug-16 03:00N 39°35' W 075°29'0 0.0
2018-Aug-16 02:30N 39°35' W 075°29'0 0.0
2018-Aug-16 02:00N 39°35' W 075°29'0 0.0
2018-Aug-16 01:30N 39°35' W 075°29'0 0.0
2018-Aug-16 01:00N 39°35' W 075°29'0 0.0
2018-Aug-16 00:30N 39°35' W 075°29'0 0.0
2018-Aug-16 00:00N 39°35' W 075°29'0 0.0
2018-Aug-15 23:30N 39°35' W 075°29'0 0.0
2018-Aug-15 23:00N 39°35' W 075°29'0 0.0
2018-Aug-15 22:30N 39°35' W 075°29'0 0.0
2018-Aug-15 22:00N 39°35' W 075°29'0 0.0
2018-Aug-15 21:30N 39°35' W 075°29'0 0.0
2018-Aug-15 21:00N 39°35' W 075°29'0 0.5
2018-Aug-15 20:30N 39°34' W 075°29'3 5.0
2018-Aug-15 20:00N 39°33' W 075°32'3 6.0
2018-Aug-15 19:30N 39°30' W 075°33'2 4.2
2018-Aug-15 19:00N 39°28' W 075°33'3 6.8
2018-Aug-15 18:30N 39°25' W 075°31'4 7.3
2018-Aug-15 18:00N 39°22' W 075°28'4 8.4
2018-Aug-15 17:30N 39°19' W 075°24'4 8.4
2018-Aug-15 17:00N 39°16' W 075°21'4 7.9
2018-Aug-15 16:30N 39°13' W 075°18'4 7.9
2018-Aug-15 16:00N 39°10' W 075°15'4 7.6
2018-Aug-15 15:30N 39°06' W 075°12'4 7.7
2018-Aug-15 15:00N 39°03' W 075°10'48 5.2
2018-Aug-15 05:50N 39°25' W 074°16'3 7.2
2018-Aug-15 05:30N 39°27' W 074°14'4 7.1
2018-Aug-15 04:59N 39°30' W 074°12'3 7.2
2018-Aug-15 04:30N 39°33' W 074°09'4 7.1
2018-Aug-15 04:00N 39°36' W 074°07'4 7.0
2018-Aug-15 03:30N 39°39' W 074°04'3 6.6
2018-Aug-15 03:00N 39°42' W 074°02'3 6.9
2018-Aug-15 02:30N 39°45' W 074°00'3 6.8
2018-Aug-15 02:00N 39°48' W 074°00'3 6.5
2018-Aug-15 01:29N 39°52' W 073°60'39 6.8
2018-Aug-14 19:47N 40°30' W 073°57'3 9.9
2018-Aug-14 19:28N 40°32' W 074°01'5 9.7
2018-Aug-14 19:00N 40°36' W 074°03'3 6.7
2018-Aug-14 18:30N 40°39' W 074°02'1 2.7
2018-Aug-14 18:00N 40°40' W 074°00'0 0.2
2018-Aug-14 17:30N 40°40' W 074°00'0 0.0
2018-Aug-14 17:00N 40°40' W 074°00'0 0.0
2018-Aug-14 16:30N 40°40' W 074°00'0 0.0
2018-Aug-14 16:00N 40°40' W 074°00'0 0.0
2018-Aug-14 15:30N 40°40' W 074°00'0 0.0
2018-Aug-14 15:00N 40°40' W 074°00'0 0.0
2018-Aug-14 14:30N 40°40' W 074°00'0 0.0
2018-Aug-14 14:00N 40°40' W 074°00'0 0.0
2018-Aug-14 13:30N 40°40' W 074°00'0 0.0
2018-Aug-14 13:00N 40°40' W 074°00'0 0.0
2018-Aug-14 12:30N 40°40' W 074°00'0 0.0
2018-Aug-14 12:00N 40°40' W 074°00'0 0.9
2018-Aug-14 11:30N 40°40' W 074°01'0 0.9
2018-Aug-14 11:00N 40°40' W 074°00'0 0.0
2018-Aug-14 10:30N 40°40' W 074°00'0 0.0
2018-Aug-14 10:00N 40°40' W 074°00'0 0.0
2018-Aug-14 09:30N 40°40' W 074°00'0 0.0
2018-Aug-14 09:00N 40°40' W 074°00'0 0.0
2018-Aug-14 08:30N 40°40' W 074°00'0 0.0
2018-Aug-14 08:00N 40°40' W 074°00'0 0.0
2018-Aug-14 07:30N 40°40' W 074°00'0 0.0
2018-Aug-14 07:00N 40°40' W 074°00'0 0.0
2018-Aug-14 06:30N 40°40' W 074°00'0 0.0
2018-Aug-14 06:00N 40°40' W 074°00'0 0.0
2018-Aug-14 05:30N 40°40' W 074°00'0 0.0
2018-Aug-14 05:00N 40°40' W 074°00'0 0.0
2018-Aug-14 04:30N 40°40' W 074°00'0 0.0
2018-Aug-14 04:00N 40°40' W 074°00'0 0.0
2018-Aug-14 03:30N 40°40' W 074°00'0 0.0
2018-Aug-14 03:00N 40°40' W 074°00'0 0.0
2018-Aug-14 02:30N 40°40' W 074°00'0 0.0
2018-Aug-14 02:00N 40°40' W 074°00'0 0.0
2018-Aug-14 01:30N 40°40' W 074°00'0 0.0
2018-Aug-14 01:00N 40°40' W 074°00'0 0.1
2018-Aug-14 00:30N 40°40' W 074°00'0 0.0
2018-Aug-14 00:00N 40°40' W 074°00'0 0.0
2018-Aug-13 23:30N 40°40' W 074°00'0 0.1
2018-Aug-13 23:00N 40°40' W 074°00'0 0.0
2018-Aug-13 22:30N 40°40' W 074°00'0 0.0
2018-Aug-13 22:00N 40°40' W 074°00'0 0.0
2018-Aug-13 21:30N 40°40' W 074°00'0 0.0
2018-Aug-13 21:00N 40°40' W 074°00'0 0.0
2018-Aug-13 20:30N 40°40' W 074°00'0 0.0
2018-Aug-13 20:00N 40°40' W 074°00'0 0.0
2018-Aug-13 19:30N 40°40' W 074°00'0 0.0
2018-Aug-13 19:00N 40°40' W 074°00'0 0.0
2018-Aug-13 18:30N 40°40' W 074°00'0 0.0
2018-Aug-13 18:00N 40°40' W 074°00'0 0.0
2018-Aug-13 17:30N 40°40' W 074°00'0 0.0
2018-Aug-13 17:00N 40°40' W 074°00'0 0.0
2018-Aug-13 16:30N 40°40' W 074°00'0 0.0
2018-Aug-13 16:00N 40°40' W 074°00'0 0.0
2018-Aug-13 15:30N 40°40' W 074°00'0 0.0
2018-Aug-13 15:00N 40°40' W 074°00'0 0.0
2018-Aug-13 14:30N 40°40' W 074°00'0 0.0
2018-Aug-13 14:00N 40°40' W 074°00'0 0.0
2018-Aug-13 13:30N 40°40' W 074°00'0 0.0
2018-Aug-13 13:00N 40°40' W 074°00'0 0.0
2018-Aug-13 12:30N 40°40' W 074°00'0 0.0
2018-Aug-13 12:00N 40°40' W 074°00'0 0.0
2018-Aug-13 11:30N 40°40' W 074°00'0 0.0
2018-Aug-13 11:00N 40°40' W 074°00'0 0.0
2018-Aug-13 10:30N 40°40' W 074°00'0 0.0
2018-Aug-13 10:00N 40°40' W 074°00'0 0.0
2018-Aug-13 09:30N 40°40' W 074°00'0 0.0
2018-Aug-13 09:00N 40°40' W 074°00'0 0.0
2018-Aug-13 08:30N 40°40' W 074°00'0 0.0
2018-Aug-13 08:00N 40°40' W 074°00'0 0.0
2018-Aug-13 07:30N 40°40' W 074°00'0 0.0
2018-Aug-13 07:00N 40°40' W 074°00'0 0.0
2018-Aug-13 06:30N 40°40' W 074°00'0 0.0
2018-Aug-13 06:00N 40°40' W 074°00'0 0.0
2018-Aug-13 05:30N 40°40' W 074°00'0 0.0
2018-Aug-13 05:00N 40°40' W 074°00'0 0.0
2018-Aug-13 04:30N 40°40' W 074°00'0 0.0
2018-Aug-13 04:00N 40°40' W 074°00'0 0.0
2018-Aug-13 03:30N 40°40' W 074°00'0 0.0
2018-Aug-13 03:00N 40°40' W 074°00'0 0.0
2018-Aug-13 02:30N 40°40' W 074°00'0 0.0
2018-Aug-13 02:00N 40°40' W 074°00'0 0.0
2018-Aug-13 01:30N 40°40' W 074°00'0 0.0
2018-Aug-13 01:00N 40°40' W 074°00'0 0.0
2018-Aug-13 00:30N 40°40' W 074°00'0 0.0
2018-Aug-13 00:00N 40°40' W 074°00'0 0.0
2018-Aug-12 23:30N 40°40' W 074°00'0 0.0
2018-Aug-12 23:00N 40°40' W 074°00'0 0.0
2018-Aug-12 22:30N 40°40' W 074°00'0 0.0
2018-Aug-12 22:00N 40°40' W 074°00'0 0.0
2018-Aug-12 21:30N 40°40' W 074°00'0 0.1
2018-Aug-12 21:00N 40°40' W 074°00'0 0.0
2018-Aug-12 20:30N 40°40' W 074°00'0 0.0
2018-Aug-12 20:00N 40°40' W 074°00'0 0.0
2018-Aug-12 19:30N 40°40' W 074°00'0 0.0
2018-Aug-12 19:00N 40°40' W 074°00'0 0.0
2018-Aug-12 18:30N 40°40' W 074°00'0 0.0
2018-Aug-12 18:00N 40°40' W 074°00'0 0.0
2018-Aug-12 17:30N 40°40' W 074°00'0 0.0
2018-Aug-12 17:00N 40°40' W 074°00'0 0.1
2018-Aug-12 16:30N 40°40' W 074°00'1 2.6
2018-Aug-12 16:00N 40°39' W 074°02'3 5.2
2018-Aug-12 15:30N 40°37' W 074°03'3 3.3
2018-Aug-12 14:44N 40°34' W 074°02'2 2.5
2018-Aug-12 14:08N 40°33' W 074°01'1 5.1
2018-Aug-12 14:00N 40°32' W 074°01'3 5.2
2018-Aug-12 13:29N 40°30' W 073°58'2 4.4
2018-Aug-12 12:59N 40°29' W 073°56'2 4.2
2018-Aug-12 12:30N 40°27' W 073°55'2 4.6
2018-Aug-12 12:00N 40°25' W 073°55'4 5.0
2018-Aug-12 11:06N 40°20' W 073°55'1 5.2
2018-Aug-12 11:00N 40°20' W 073°55'3 5.2
2018-Aug-12 10:22N 40°16' W 073°54'2 5.1
2018-Aug-12 09:54N 40°14' W 073°54'3 5.1
2018-Aug-12 09:21N 40°11' W 073°54'3 5.0
2018-Aug-12 08:40N 40°08' W 073°55'1 5.2
2018-Aug-12 08:27N 40°07' W 073°55'3 5.2
2018-Aug-12 07:57N 40°04' W 073°56'3 5.2
2018-Aug-12 07:21N 40°01' W 073°57'2 5.2
2018-Aug-12 06:56N 39°59' W 073°58'2 5.2
2018-Aug-12 06:27N 39°57' W 073°58'2 5.2
2018-Aug-12 05:59N 39°54' W 073°59'2 5.2
2018-Aug-12 05:30N 39°52' W 073°60'3 5.1
2018-Aug-12 05:00N 39°49' W 074°01'3 5.1
2018-Aug-12 04:30N 39°47' W 074°02'2 4.8
2018-Aug-12 04:00N 39°44' W 074°02'2 4.6
2018-Aug-12 03:30N 39°42' W 074°03'2 4.8
2018-Aug-12 03:00N 39°40' W 074°04'3 5.2
2018-Aug-12 02:29N 39°38' W 074°05'2 5.2
2018-Aug-12 02:00N 39°35' W 074°07'3 5.2
2018-Aug-12 01:30N 39°33' W 074°09'3 5.5
2018-Aug-12 01:00N 39°31' W 074°11'3 5.3
2018-Aug-12 00:30N 39°29' W 074°13'3 5.1
2018-Aug-11 23:58N 39°26' W 074°15'2 5.1
2018-Aug-11 23:30N 39°24' W 074°16'3 5.2
2018-Aug-11 23:01N 39°22' W 074°18'3 5.3
2018-Aug-11 22:30N 39°20' W 074°20'3 5.7
2018-Aug-11 22:00N 39°18' W 074°22'4 5.6
2018-Aug-11 21:23N 39°15' W 074°25'2 5.5
2018-Aug-11 20:57N 39°14' W 074°27'10 5.3
2018-Aug-11 19:04N 39°06' W 074°36'0 5.4
2018-Aug-11 19:00N 39°06' W 074°36'3 5.5
2018-Aug-11 18:30N 39°03' W 074°38'3 5.5
2018-Aug-11 18:00N 39°01' W 074°40'4 5.7
2018-Aug-11 17:17N 38°58' W 074°43'2 6.0
2018-Aug-11 16:55N 38°56' W 074°44'3 6.1
2018-Aug-11 16:27N 38°54' W 074°47'3 5.9
2018-Aug-11 16:00N 38°52' W 074°49'3 6.2
2018-Aug-11 15:30N 38°50' W 074°52'3 6.1
2018-Aug-11 14:58N 38°49' W 074°56'2 4.0
2018-Aug-11 14:21N 38°48' W 074°59'3 3.0
2018-Aug-11 13:27N 38°49' W 075°02'1 3.3
2018-Aug-11 13:00N 38°50' W 075°03'2 3.4
2018-Aug-11 12:28N 38°52' W 075°04'2 5.0
2018-Aug-11 12:00N 38°54' W 075°05'2 4.5
2018-Aug-11 11:30N 38°56' W 075°06'2 4.6
2018-Aug-11 11:00N 38°58' W 075°08'2 4.6
2018-Aug-11 10:30N 39°00' W 075°09'3 5.1
2018-Aug-11 10:00N 39°03' W 075°10'3 5.6
2018-Aug-11 09:30N 39°05' W 075°12'3 5.3
2018-Aug-11 09:00N 39°07' W 075°13'3 5.7
2018-Aug-11 08:30N 39°10' W 075°15'3 7.0
2018-Aug-11 08:00N 39°13' W 075°18'4 7.8
2018-Aug-11 07:30N 39°16' W 075°21'4 8.1
2018-Aug-11 07:00N 39°19' W 075°24'4 7.4
2018-Aug-11 06:30N 39°22' W 075°27'3 6.8
2018-Aug-11 06:00N 39°24' W 075°30'3 6.3
2018-Aug-11 05:30N 39°27' W 075°33'3 5.1
2018-Aug-11 05:00N 39°29' W 075°34'2 3.9
2018-Aug-11 04:30N 39°31' W 075°33'1 2.5
2018-Aug-11 04:00N 39°32' W 075°33'2 4.4
2018-Aug-11 03:30N 39°34' W 075°31'2 3.3
2018-Aug-11 03:00N 39°34' W 075°29'0 0.7
2018-Aug-11 02:30N 39°35' W 075°29'0 0.0
2018-Aug-11 02:00N 39°35' W 075°29'0 0.1
2018-Aug-11 01:30N 39°35' W 075°29'0 0.0
2018-Aug-11 01:00N 39°35' W 075°29'0 0.0
2018-Aug-10 17:41N 39°35' W 075°29'0 0.0
2018-Aug-10 17:30N 39°35' W 075°29'0 0.0
2018-Aug-10 17:00N 39°35' W 075°29'0 0.0
2018-Aug-10 16:30N 39°35' W 075°29'2 3.8
2018-Aug-10 16:00N 39°34' W 075°31'2 4.9
2018-Aug-10 15:30N 39°32' W 075°33'2 3.9
2018-Aug-10 15:00N 39°30' W 075°33'0 0.5
2018-Aug-10 14:30N 39°30' W 075°33'2 4.0
2018-Aug-10 14:00N 39°28' W 075°33'4 7.7
2018-Aug-10 13:30N 39°25' W 075°30'4 7.9
2018-Aug-10 13:00N 39°22' W 075°27'4 8.2
2018-Aug-10 12:30N 39°18' W 075°24'4 8.0
2018-Aug-10 12:01N 39°16' W 075°20'4 7.4
2018-Aug-10 11:30N 39°13' W 075°17'4 7.9
2018-Aug-10 11:00N 39°09' W 075°15'4 7.6
2018-Aug-10 10:30N 39°06' W 075°12'4 7.3
2018-Aug-10 10:00N 39°03' W 075°10'4 7.9
2018-Aug-10 09:30N 38°59' W 075°08'4 7.5
2018-Aug-10 09:00N 38°56' W 075°06'3 5.1
2018-Aug-10 08:30N 38°54' W 075°04'3 5.7
2018-Aug-10 08:00N 38°51' W 075°03'3 5.9
2018-Aug-10 07:30N 38°49' W 075°01'9 5.3
2018-Aug-10 05:46N 38°51' W 074°49'2 5.6
2018-Aug-10 05:30N 38°52' W 074°48'3 5.5
2018-Aug-10 05:00N 38°54' W 074°46'38 6.8
2018-Aug-09 23:20N 39°25' W 074°16'2 7.5
2018-Aug-09 23:00N 39°27' W 074°14'4 7.6
2018-Aug-09 22:30N 39°30' W 074°12'4 7.6
2018-Aug-09 22:00N 39°33' W 074°09'4 7.4
2018-Aug-09 21:30N 39°36' W 074°06'4 7.5
2018-Aug-09 21:00N 39°39' W 074°04'4 7.3
2018-Aug-09 20:30N 39°43' W 074°02'4 7.4
2018-Aug-09 20:00N 39°46' W 074°02'4 7.2
2018-Aug-09 19:30N 39°50' W 074°01'4 7.2
2018-Aug-09 19:00N 39°54' W 074°00'37 7.4
2018-Aug-09 14:02N 40°30' W 073°58'310.8
2018-Aug-09 13:46N 40°32' W 074°01'310.2
2018-Aug-09 13:28N 40°35' W 074°02'3 7.0
2018-Aug-09 13:00N 40°38' W 074°03'2 4.8
2018-Aug-09 12:30N 40°40' W 074°00'0 0.0
2018-Aug-08 23:25N 40°40' W 074°00'1 1.5
2018-Aug-08 23:00N 40°40' W 074°01'4 7.4
2018-Aug-08 22:30N 40°39' W 074°06'1 1.3
2018-Aug-08 21:57N 40°39' W 074°07'0 0.0
2018-Aug-08 21:21N 40°39' W 074°07'0 0.0
2018-Aug-08 21:00N 40°39' W 074°07'0 0.0
2018-Aug-08 20:22N 40°39' W 074°07'0 0.0
2018-Aug-08 19:58N 40°39' W 074°07'2 4.5
2018-Aug-08 19:30N 40°40' W 074°04'3 5.8
2018-Aug-08 19:00N 40°40' W 074°00'0 0.1
2018-Aug-08 18:30N 40°40' W 074°00'0 0.0
2018-Aug-08 17:59N 40°40' W 074°00'0 0.0
2018-Aug-08 17:30N 40°40' W 074°00'0 0.1
2018-Aug-08 17:00N 40°40' W 074°00'0 0.0
2018-Aug-08 16:30N 40°40' W 074°00'0 0.0
2018-Aug-08 16:00N 40°40' W 074°00'0 0.0
2018-Aug-08 15:30N 40°40' W 074°00'0 0.1
2018-Aug-08 15:00N 40°40' W 074°00'0 0.0
2018-Aug-08 14:30N 40°40' W 074°00'0 0.0
2018-Aug-08 14:00N 40°40' W 074°00'0 0.0
2018-Aug-08 13:30N 40°40' W 074°00'0 0.0
2018-Aug-08 13:00N 40°40' W 074°00'0 0.0
2018-Aug-08 12:30N 40°40' W 074°00'0 0.0
2018-Aug-08 12:00N 40°40' W 074°00'0 0.0
2018-Aug-08 11:30N 40°40' W 074°00'0 0.0
2018-Aug-08 11:00N 40°40' W 074°00'0 0.0
2018-Aug-08 10:30N 40°40' W 074°00'0 0.0
2018-Aug-08 10:00N 40°40' W 074°00'0 0.0
2018-Aug-08 09:30N 40°40' W 074°00'0 0.0
2018-Aug-08 09:00N 40°40' W 074°00'0 0.0
2018-Aug-08 08:30N 40°40' W 074°00'0 0.0
2018-Aug-08 07:59N 40°40' W 074°00'0 0.0
2018-Aug-08 07:30N 40°40' W 074°00'0 0.0
2018-Aug-08 07:00N 40°40' W 074°00'0 0.8
2018-Aug-08 06:30N 40°40' W 074°01'3 5.3
2018-Aug-08 06:00N 40°38' W 074°03'3 6.2
2018-Aug-08 05:30N 40°35' W 074°01'0 0.4
2018-Aug-08 04:57N 40°34' W 074°01'39 5.5
2018-Aug-07 21:54N 39°56' W 074°00'3 6.4
2018-Aug-07 21:30N 39°53' W 074°01'3 6.4
2018-Aug-07 20:58N 39°50' W 074°01'3 6.6
2018-Aug-07 20:30N 39°47' W 074°02'3 6.7
2018-Aug-07 20:00N 39°44' W 074°02'3 6.7
2018-Aug-07 19:30N 39°40' W 074°03'3 6.8
2018-Aug-07 19:00N 39°37' W 074°05'3 6.7
2018-Aug-07 18:30N 39°35' W 074°08'3 6.5
2018-Aug-07 18:00N 39°32' W 074°10'3 6.3
2018-Aug-07 17:29N 39°29' W 074°13'16 6.4
2018-Aug-07 15:00N 39°16' W 074°24'4 6.6
2018-Aug-07 14:23N 39°13' W 074°28'3 6.6
2018-Aug-07 13:56N 39°11' W 074°30'3 6.6
2018-Aug-07 13:30N 39°09' W 074°33'3 6.6
2018-Aug-07 12:59N 39°06' W 074°35'3 6.5
2018-Aug-07 12:29N 39°03' W 074°38'23 5.7
2018-Aug-07 08:25N 38°48' W 075°01'2 4.4
2018-Aug-07 08:00N 38°50' W 075°03'3 5.1
2018-Aug-07 07:30N 38°52' W 075°04'2 4.6
2018-Aug-07 07:00N 38°54' W 075°05'2 4.3
2018-Aug-07 06:30N 38°56' W 075°07'2 4.8
2018-Aug-07 06:00N 38°58' W 075°08'3 5.1
2018-Aug-07 05:30N 39°01' W 075°09'3 5.5
2018-Aug-07 05:00N 39°03' W 075°10'3 6.2
2018-Aug-07 04:30N 39°06' W 075°12'3 7.0
2018-Aug-07 04:00N 39°09' W 075°14'4 7.3
2018-Aug-07 03:30N 39°12' W 075°17'4 7.9
2018-Aug-07 03:00N 39°15' W 075°20'4 8.2
2018-Aug-07 02:30N 39°18' W 075°23'4 7.7
2018-Aug-07 02:00N 39°21' W 075°27'3 7.0
2018-Aug-07 01:30N 39°24' W 075°30'3 6.5
2018-Aug-07 01:00N 39°26' W 075°32'3 5.8
2018-Aug-07 00:30N 39°29' W 075°33'2 3.9
2018-Aug-07 00:00N 39°31' W 075°33'1 1.9
2018-Aug-06 23:30N 39°32' W 075°33'2 4.4
2018-Aug-06 23:00N 39°34' W 075°31'2 3.6
2018-Aug-06 22:30N 39°34' W 075°29'0 0.6
2018-Aug-06 22:00N 39°35' W 075°29'0 0.0
2018-Aug-06 21:30N 39°35' W 075°29'0 0.1
2018-Aug-06 21:00N 39°35' W 075°29'0 0.0
2018-Aug-06 20:30N 39°35' W 075°29'0 0.0
2018-Aug-06 20:00N 39°35' W 075°29'0 0.0
2018-Aug-06 19:30N 39°35' W 075°29'0 0.0
2018-Aug-06 19:00N 39°35' W 075°29'0 0.0
2018-Aug-06 18:30N 39°35' W 075°29'0 0.0
2018-Aug-06 18:00N 39°35' W 075°29'0 0.0
2018-Aug-06 17:30N 39°35' W 075°29'0 0.0
2018-Aug-06 17:00N 39°35' W 075°29'0 0.0
2018-Aug-06 16:30N 39°35' W 075°29'0 0.0
2018-Aug-06 16:00N 39°35' W 075°29'0 0.0
2018-Aug-06 15:30N 39°35' W 075°29'0 0.0
2018-Aug-06 15:00N 39°35' W 075°29'0 0.0
2018-Aug-06 14:30N 39°35' W 075°29'0 0.0
2018-Aug-06 14:00N 39°35' W 075°29'0 0.0
2018-Aug-06 13:30N 39°35' W 075°29'0 0.0
2018-Aug-06 13:00N 39°35' W 075°29'0 0.0
2018-Aug-06 12:30N 39°35' W 075°29'0 0.0
2018-Aug-06 12:00N 39°35' W 075°29'0 0.0
2018-Aug-06 11:30N 39°35' W 075°29'0 0.0
2018-Aug-06 10:59N 39°35' W 075°29'0 0.0
2018-Aug-06 10:30N 39°35' W 075°29'0 0.0
2018-Aug-06 10:00N 39°35' W 075°29'0 0.0
2018-Aug-06 09:30N 39°35' W 075°29'0 0.0
2018-Aug-06 09:00N 39°35' W 075°29'  
Track history (hours):
 
Tides and Currents Weather Stations Pressure Air Temp Water Temp Dewpoint Dewpoint Depression Visibility Wind Speed Wind Dir Waves Ship Positions

Daisy Mae

Owner: Coeymans Marine Towing, LLC, Coeymans, NY. More information available from US FCC via Universal Licensing System and Coast Guard Vessel Documentation Center.

Last reported at 2018-Aug-16 08:30 UTC. Time now 2018-Aug-16 08:44 UTC.
Position N 39°35' W 075°29'.

MMSI: 367797720.

Date/timePositionNaut miles runAvg speedWind from/ knotsBaromVisibWave heightAir tempDewpointWater temp
2018-Aug-16 08:30N 39°35' W 075°29'0 0.0
2018-Aug-16 08:00N 39°35' W 075°29'0 0.0
2018-Aug-16 07:30N 39°35' W 075°29'0 0.0
2018-Aug-16 06:59N 39°35' W 075°29'0 0.0
2018-Aug-16 06:30N 39°35' W 075°29'0 0.0
2018-Aug-16 06:01N 39°35' W 075°29'0 0.0
2018-Aug-16 05:30N 39°35' W 075°29'0 0.0
2018-Aug-16 05:01N 39°35' W 075°29'0 0.0
2018-Aug-16 04:30N 39°35' W 075°29'0 0.0
2018-Aug-16 04:00N 39°35' W 075°29'0 0.0
2018-Aug-16 03:30N 39°35' W 075°29'0 0.0
2018-Aug-16 03:00N 39°35' W 075°29'0 0.0
2018-Aug-16 02:30N 39°35' W 075°29'0 0.0
2018-Aug-16 02:00N 39°35' W 075°29'0 0.0
2018-Aug-16 01:30N 39°35' W 075°29'0 0.0
2018-Aug-16 01:00N 39°35' W 075°29'0 0.0
2018-Aug-16 00:30N 39°35' W 075°29'0 0.0
2018-Aug-16 00:00N 39°35' W 075°29'0 0.0
2018-Aug-15 23:30N 39°35' W 075°29'0 0.0
2018-Aug-15 23:00N 39°35' W 075°29'0 0.0
2018-Aug-15 22:30N 39°35' W 075°29'0 0.0
2018-Aug-15 22:00N 39°35' W 075°29'0 0.0
2018-Aug-15 21:30N 39°35' W 075°29'0 0.0
2018-Aug-15 21:00N 39°35' W 075°29'0 0.5
2018-Aug-15 20:30N 39°34' W 075°29'3 5.0
2018-Aug-15 20:00N 39°33' W 075°32'3 6.0
2018-Aug-15 19:30N 39°30' W 075°33'2 4.2
2018-Aug-15 19:00N 39°28' W 075°33'3 6.8
2018-Aug-15 18:30N 39°25' W 075°31'4 7.3
2018-Aug-15 18:00N 39°22' W 075°28'4 8.4
2018-Aug-15 17:30N 39°19' W 075°24'4 8.4
2018-Aug-15 17:00N 39°16' W 075°21'4 7.9
2018-Aug-15 16:30N 39°13' W 075°18'4 7.9
2018-Aug-15 16:00N 39°10' W 075°15'4 7.6
2018-Aug-15 15:30N 39°06' W 075°12'4 7.7
2018-Aug-15 15:00N 39°03' W 075°10'48 5.2
2018-Aug-15 05:50N 39°25' W 074°16'3 7.2
2018-Aug-15 05:30N 39°27' W 074°14'4 7.1
2018-Aug-15 04:59N 39°30' W 074°12'3 7.2
2018-Aug-15 04:30N 39°33' W 074°09'4 7.1
2018-Aug-15 04:00N 39°36' W 074°07'4 7.0
2018-Aug-15 03:30N 39°39' W 074°04'3 6.6
2018-Aug-15 03:00N 39°42' W 074°02'3 6.9
2018-Aug-15 02:30N 39°45' W 074°00'3 6.8
2018-Aug-15 02:00N 39°48' W 074°00'3 6.5
2018-Aug-15 01:29N 39°52' W 073°60'39 6.8
2018-Aug-14 19:47N 40°30' W 073°57'3 9.9
2018-Aug-14 19:28N 40°32' W 074°01'5 9.7
2018-Aug-14 19:00N 40°36' W 074°03'3 6.7
2018-Aug-14 18:30N 40°39' W 074°02'1 2.7
2018-Aug-14 18:00N 40°40' W 074°00'0 0.2
2018-Aug-14 17:30N 40°40' W 074°00'0 0.0
2018-Aug-14 17:00N 40°40' W 074°00'0 0.0
2018-Aug-14 16:30N 40°40' W 074°00'0 0.0
2018-Aug-14 16:00N 40°40' W 074°00'0 0.0
2018-Aug-14 15:30N 40°40' W 074°00'0 0.0
2018-Aug-14 15:00N 40°40' W 074°00'0 0.0
2018-Aug-14 14:30N 40°40' W 074°00'0 0.0
2018-Aug-14 14:00N 40°40' W 074°00'0 0.0
2018-Aug-14 13:30N 40°40' W 074°00'0 0.0
2018-Aug-14 13:00N 40°40' W 074°00'0 0.0
2018-Aug-14 12:30N 40°40' W 074°00'0 0.0
2018-Aug-14 12:00N 40°40' W 074°00'0 0.9
2018-Aug-14 11:30N 40°40' W 074°01'0 0.9
2018-Aug-14 11:00N 40°40' W 074°00'0 0.0
2018-Aug-14 10:30N 40°40' W 074°00'0 0.0
2018-Aug-14 10:00N 40°40' W 074°00'0 0.0
2018-Aug-14 09:30N 40°40' W 074°00'0 0.0
2018-Aug-14 09:00N 40°40' W 074°00'0 0.0
2018-Aug-14 08:30N 40°40' W 074°00'0 0.0
2018-Aug-14 08:00N 40°40' W 074°00'0 0.0
2018-Aug-14 07:30N 40°40' W 074°00'0 0.0
2018-Aug-14 07:00N 40°40' W 074°00'0 0.0
2018-Aug-14 06:30N 40°40' W 074°00'0 0.0
2018-Aug-14 06:00N 40°40' W 074°00'0 0.0
2018-Aug-14 05:30N 40°40' W 074°00'0 0.0
2018-Aug-14 05:00N 40°40' W 074°00'0 0.0
2018-Aug-14 04:30N 40°40' W 074°00'0 0.0
2018-Aug-14 04:00N 40°40' W 074°00'0 0.0
2018-Aug-14 03:30N 40°40' W 074°00'0 0.0
2018-Aug-14 03:00N 40°40' W 074°00'0 0.0
2018-Aug-14 02:30N 40°40' W 074°00'0 0.0
2018-Aug-14 02:00N 40°40' W 074°00'0 0.0
2018-Aug-14 01:30N 40°40' W 074°00'0 0.0
2018-Aug-14 01:00N 40°40' W 074°00'0 0.1
2018-Aug-14 00:30N 40°40' W 074°00'0 0.0
2018-Aug-14 00:00N 40°40' W 074°00'0 0.0
2018-Aug-13 23:30N 40°40' W 074°00'0 0.1
2018-Aug-13 23:00N 40°40' W 074°00'0 0.0
2018-Aug-13 22:30N 40°40' W 074°00'0 0.0
2018-Aug-13 22:00N 40°40' W 074°00'0 0.0
2018-Aug-13 21:30N 40°40' W 074°00'0 0.0
2018-Aug-13 21:00N 40°40' W 074°00'0 0.0
2018-Aug-13 20:30N 40°40' W 074°00'0 0.0
2018-Aug-13 20:00N 40°40' W 074°00'0 0.0
2018-Aug-13 19:30N 40°40' W 074°00'0 0.0
2018-Aug-13 19:00N 40°40' W 074°00'0 0.0
2018-Aug-13 18:30N 40°40' W 074°00'0 0.0
2018-Aug-13 18:00N 40°40' W 074°00'0 0.0
2018-Aug-13 17:30N 40°40' W 074°00'0 0.0
2018-Aug-13 17:00N 40°40' W 074°00'0 0.0
2018-Aug-13 16:30N 40°40' W 074°00'0 0.0
2018-Aug-13 16:00N 40°40' W 074°00'0 0.0
2018-Aug-13 15:30N 40°40' W 074°00'0 0.0
2018-Aug-13 15:00N 40°40' W 074°00'0 0.0
2018-Aug-13 14:30N 40°40' W 074°00'0 0.0
2018-Aug-13 14:00N 40°40' W 074°00'0 0.0
2018-Aug-13 13:30N 40°40' W 074°00'0 0.0
2018-Aug-13 13:00N 40°40' W 074°00'0 0.0
2018-Aug-13 12:30N 40°40' W 074°00'0 0.0
2018-Aug-13 12:00N 40°40' W 074°00'0 0.0
2018-Aug-13 11:30N 40°40' W 074°00'0 0.0
2018-Aug-13 11:00N 40°40' W 074°00'0 0.0
2018-Aug-13 10:30N 40°40' W 074°00'0 0.0
2018-Aug-13 10:00N 40°40' W 074°00'0 0.0
2018-Aug-13 09:30N 40°40' W 074°00'0 0.0
2018-Aug-13 09:00N 40°40' W 074°00'0 0.0
2018-Aug-13 08:30N 40°40' W 074°00'0 0.0
2018-Aug-13 08:00N 40°40' W 074°00'0 0.0
2018-Aug-13 07:30N 40°40' W 074°00'0 0.0
2018-Aug-13 07:00N 40°40' W 074°00'0 0.0
2018-Aug-13 06:30N 40°40' W 074°00'0 0.0
2018-Aug-13 06:00N 40°40' W 074°00'0 0.0
2018-Aug-13 05:30N 40°40' W 074°00'0 0.0
2018-Aug-13 05:00N 40°40' W 074°00'0 0.0
2018-Aug-13 04:30N 40°40' W 074°00'0 0.0
2018-Aug-13 04:00N 40°40' W 074°00'0 0.0
2018-Aug-13 03:30N 40°40' W 074°00'0 0.0
2018-Aug-13 03:00N 40°40' W 074°00'0 0.0
2018-Aug-13 02:30N 40°40' W 074°00'0 0.0
2018-Aug-13 02:00N 40°40' W 074°00'0 0.0
2018-Aug-13 01:30N 40°40' W 074°00'0 0.0
2018-Aug-13 01:00N 40°40' W 074°00'0 0.0
2018-Aug-13 00:30N 40°40' W 074°00'0 0.0
2018-Aug-13 00:00N 40°40' W 074°00'0 0.0
2018-Aug-12 23:30N 40°40' W 074°00'0 0.0
2018-Aug-12 23:00N 40°40' W 074°00'0 0.0
2018-Aug-12 22:30N 40°40' W 074°00'0 0.0
2018-Aug-12 22:00N 40°40' W 074°00'0 0.0
2018-Aug-12 21:30N 40°40' W 074°00'0 0.1
2018-Aug-12 21:00N 40°40' W 074°00'0 0.0
2018-Aug-12 20:30N 40°40' W 074°00'0 0.0
2018-Aug-12 20:00N 40°40' W 074°00'0 0.0
2018-Aug-12 19:30N 40°40' W 074°00'0 0.0
2018-Aug-12 19:00N 40°40' W 074°00'0 0.0
2018-Aug-12 18:30N 40°40' W 074°00'0 0.0
2018-Aug-12 18:00N 40°40' W 074°00'0 0.0
2018-Aug-12 17:30N 40°40' W 074°00'0 0.0
2018-Aug-12 17:00N 40°40' W 074°00'0 0.1
2018-Aug-12 16:30N 40°40' W 074°00'1 2.6
2018-Aug-12 16:00N 40°39' W 074°02'3 5.2
2018-Aug-12 15:30N 40°37' W 074°03'3 3.3
2018-Aug-12 14:44N 40°34' W 074°02'2 2.5
2018-Aug-12 14:08N 40°33' W 074°01'1 5.1
2018-Aug-12 14:00N 40°32' W 074°01'3 5.2
2018-Aug-12 13:29N 40°30' W 073°58'2 4.4
2018-Aug-12 12:59N 40°29' W 073°56'2 4.2
2018-Aug-12 12:30N 40°27' W 073°55'2 4.6
2018-Aug-12 12:00N 40°25' W 073°55'4 5.0
2018-Aug-12 11:06N 40°20' W 073°55'1 5.2
2018-Aug-12 11:00N 40°20' W 073°55'3 5.2
2018-Aug-12 10:22N 40°16' W 073°54'2 5.1
2018-Aug-12 09:54N 40°14' W 073°54'3 5.1
2018-Aug-12 09:21N 40°11' W 073°54'3 5.0
2018-Aug-12 08:40N 40°08' W 073°55'1 5.2
2018-Aug-12 08:27N 40°07' W 073°55'3 5.2
2018-Aug-12 07:57N 40°04' W 073°56'3 5.2
2018-Aug-12 07:21N 40°01' W 073°57'2 5.2
2018-Aug-12 06:56N 39°59' W 073°58'2 5.2
2018-Aug-12 06:27N 39°57' W 073°58'2 5.2
2018-Aug-12 05:59N 39°54' W 073°59'2 5.2
2018-Aug-12 05:30N 39°52' W 073°60'3 5.1
2018-Aug-12 05:00N 39°49' W 074°01'3 5.1
2018-Aug-12 04:30N 39°47' W 074°02'2 4.8
2018-Aug-12 04:00N 39°44' W 074°02'2 4.6
2018-Aug-12 03:30N 39°42' W 074°03'2 4.8
2018-Aug-12 03:00N 39°40' W 074°04'3 5.2
2018-Aug-12 02:29N 39°38' W 074°05'2 5.2
2018-Aug-12 02:00N 39°35' W 074°07'3 5.2
2018-Aug-12 01:30N 39°33' W 074°09'3 5.5
2018-Aug-12 01:00N 39°31' W 074°11'3 5.3
2018-Aug-12 00:30N 39°29' W 074°13'3 5.1
2018-Aug-11 23:58N 39°26' W 074°15'2 5.1
2018-Aug-11 23:30N 39°24' W 074°16'3 5.2
2018-Aug-11 23:01N 39°22' W 074°18'3 5.3
2018-Aug-11 22:30N 39°20' W 074°20'3 5.7
2018-Aug-11 22:00N 39°18' W 074°22'4 5.6
2018-Aug-11 21:23N 39°15' W 074°25'2 5.5
2018-Aug-11 20:57N 39°14' W 074°27'10 5.3
2018-Aug-11 19:04N 39°06' W 074°36'0 5.4
2018-Aug-11 19:00N 39°06' W 074°36'3 5.5
2018-Aug-11 18:30N 39°03' W 074°38'3 5.5
2018-Aug-11 18:00N 39°01' W 074°40'4 5.7
2018-Aug-11 17:17N 38°58' W 074°43'2 6.0
2018-Aug-11 16:55N 38°56' W 074°44'3 6.1
2018-Aug-11 16:27N 38°54' W 074°47'3 5.9
2018-Aug-11 16:00N 38°52' W 074°49'3 6.2
2018-Aug-11 15:30N 38°50' W 074°52'3 6.1
2018-Aug-11 14:58N 38°49' W 074°56'2 4.0
2018-Aug-11 14:21N 38°48' W 074°59'3 3.0
2018-Aug-11 13:27N 38°49' W 075°02'1 3.3
2018-Aug-11 13:00N 38°50' W 075°03'2 3.4
2018-Aug-11 12:28N 38°52' W 075°04'2 5.0
2018-Aug-11 12:00N 38°54' W 075°05'2 4.5
2018-Aug-11 11:30N 38°56' W 075°06'2 4.6
2018-Aug-11 11:00N 38°58' W 075°08'2 4.6
2018-Aug-11 10:30N 39°00' W 075°09'3 5.1
2018-Aug-11 10:00N 39°03' W 075°10'3 5.6
2018-Aug-11 09:30N 39°05' W 075°12'3 5.3
2018-Aug-11 09:00N 39°07' W 075°13'3 5.7
2018-Aug-11 08:30N 39°10' W 075°15'3 7.0
2018-Aug-11 08:00N 39°13' W 075°18'4 7.8
2018-Aug-11 07:30N 39°16' W 075°21'4 8.1
2018-Aug-11 07:00N 39°19' W 075°24'4 7.4
2018-Aug-11 06:30N 39°22' W 075°27'3 6.8
2018-Aug-11 06:00N 39°24' W 075°30'3 6.3
2018-Aug-11 05:30N 39°27' W 075°33'3 5.1
2018-Aug-11 05:00N 39°29' W 075°34'2 3.9
2018-Aug-11 04:30N 39°31' W 075°33'1 2.5
2018-Aug-11 04:00N 39°32' W 075°33'2 4.4
2018-Aug-11 03:30N 39°34' W 075°31'2 3.3
2018-Aug-11 03:00N 39°34' W 075°29'0 0.7
2018-Aug-11 02:30N 39°35' W 075°29'0 0.0
2018-Aug-11 02:00N 39°35' W 075°29'0 0.1
2018-Aug-11 01:30N 39°35' W 075°29'0 0.0
2018-Aug-11 01:00N 39°35' W 075°29'0 0.0
2018-Aug-10 17:41N 39°35' W 075°29'0 0.0
2018-Aug-10 17:30N 39°35' W 075°29'0 0.0
2018-Aug-10 17:00N 39°35' W 075°29'0 0.0
2018-Aug-10 16:30N 39°35' W 075°29'2 3.8
2018-Aug-10 16:00N 39°34' W 075°31'2 4.9
2018-Aug-10 15:30N 39°32' W 075°33'2 3.9
2018-Aug-10 15:00N 39°30' W 075°33'0 0.5
2018-Aug-10 14:30N 39°30' W 075°33'2 4.0
2018-Aug-10 14:00N 39°28' W 075°33'4 7.7
2018-Aug-10 13:30N 39°25' W 075°30'4 7.9
2018-Aug-10 13:00N 39°22' W 075°27'4 8.2
2018-Aug-10 12:30N 39°18' W 075°24'4 8.0
2018-Aug-10 12:01N 39°16' W 075°20'4 7.4
2018-Aug-10 11:30N 39°13' W 075°17'4 7.9
2018-Aug-10 11:00N 39°09' W 075°15'4 7.6
2018-Aug-10 10:30N 39°06' W 075°12'4 7.3
2018-Aug-10 10:00N 39°03' W 075°10'4 7.9
2018-Aug-10 09:30N 38°59' W 075°08'4 7.5
2018-Aug-10 09:00N 38°56' W 075°06'3 5.1
2018-Aug-10 08:30N 38°54' W 075°04'3 5.7
2018-Aug-10 08:00N 38°51' W 075°03'3 5.9
2018-Aug-10 07:30N 38°49' W 075°01'9 5.3
2018-Aug-10 05:46N 38°51' W 074°49'2 5.6
2018-Aug-10 05:30N 38°52' W 074°48'3 5.5
2018-Aug-10 05:00N 38°54' W 074°46'38 6.8
2018-Aug-09 23:20N 39°25' W 074°16'2 7.5
2018-Aug-09 23:00N 39°27' W 074°14'4 7.6
2018-Aug-09 22:30N 39°30' W 074°12'4 7.6
2018-Aug-09 22:00N 39°33' W 074°09'4 7.4
2018-Aug-09 21:30N 39°36' W 074°06'4 7.5
2018-Aug-09 21:00N 39°39' W 074°04'4 7.3
2018-Aug-09 20:30N 39°43' W 074°02'4 7.4
2018-Aug-09 20:00N 39°46' W 074°02'4 7.2
2018-Aug-09 19:30N 39°50' W 074°01'4 7.2
2018-Aug-09 19:00N 39°54' W 074°00'37 7.4
2018-Aug-09 14:02N 40°30' W 073°58'310.8
2018-Aug-09 13:46N 40°32' W 074°01'310.2
2018-Aug-09 13:28N 40°35' W 074°02'3 7.0
2018-Aug-09 13:00N 40°38' W 074°03'2 4.8
2018-Aug-09 12:30N 40°40' W 074°00'0 0.0
2018-Aug-08 23:25N 40°40' W 074°00'1 1.5
2018-Aug-08 23:00N 40°40' W 074°01'4 7.4
2018-Aug-08 22:30N 40°39' W 074°06'1 1.3
2018-Aug-08 21:57N 40°39' W 074°07'0 0.0
2018-Aug-08 21:21N 40°39' W 074°07'0 0.0
2018-Aug-08 21:00N 40°39' W 074°07'0 0.0
2018-Aug-08 20:22N 40°39' W 074°07'0 0.0
2018-Aug-08 19:58N 40°39' W 074°07'2 4.5
2018-Aug-08 19:30N 40°40' W 074°04'3 5.8
2018-Aug-08 19:00N 40°40' W 074°00'0 0.1
2018-Aug-08 18:30N 40°40' W 074°00'0 0.0
2018-Aug-08 17:59N 40°40' W 074°00'0 0.0
2018-Aug-08 17:30N 40°40' W 074°00'0 0.1
2018-Aug-08 17:00N 40°40' W 074°00'0 0.0
2018-Aug-08 16:30N 40°40' W 074°00'0 0.0
2018-Aug-08 16:00N 40°40' W 074°00'0 0.0
2018-Aug-08 15:30N 40°40' W 074°00'0 0.1
2018-Aug-08 15:00N 40°40' W 074°00'0 0.0
2018-Aug-08 14:30N 40°40' W 074°00'0 0.0
2018-Aug-08 14:00N 40°40' W 074°00'0 0.0
2018-Aug-08 13:30N 40°40' W 074°00'0 0.0
2018-Aug-08 13:00N 40°40' W 074°00'0 0.0
2018-Aug-08 12:30N 40°40' W 074°00'0 0.0
2018-Aug-08 12:00N 40°40' W 074°00'0 0.0
2018-Aug-08 11:30N 40°40' W 074°00'0 0.0
2018-Aug-08 11:00N 40°40' W 074°00'0 0.0
2018-Aug-08 10:30N 40°40' W 074°00'0 0.0
2018-Aug-08 10:00N 40°40' W 074°00'0 0.0
2018-Aug-08 09:30N 40°40' W 074°00'0 0.0
2018-Aug-08 09:00N 40°40' W 074°00'0 0.0
2018-Aug-08 08:30N 40°40' W 074°00'0 0.0
2018-Aug-08 07:59N 40°40' W 074°00'0 0.0
2018-Aug-08 07:30N 40°40' W 074°00'0 0.0
2018-Aug-08 07:00N 40°40' W 074°00'0 0.8
2018-Aug-08 06:30N 40°40' W 074°01'3 5.3
2018-Aug-08 06:00N 40°38' W 074°03'3 6.2
2018-Aug-08 05:30N 40°35' W 074°01'0 0.4
2018-Aug-08 04:57N 40°34' W 074°01'39 5.5
2018-Aug-07 21:54N 39°56' W 074°00'3 6.4
2018-Aug-07 21:30N 39°53' W 074°01'3 6.4
2018-Aug-07 20:58N 39°50' W 074°01'3 6.6
2018-Aug-07 20:30N 39°47' W 074°02'3 6.7
2018-Aug-07 20:00N 39°44' W 074°02'3 6.7
2018-Aug-07 19:30N 39°40' W 074°03'3 6.8
2018-Aug-07 19:00N 39°37' W 074°05'3 6.7
2018-Aug-07 18:30N 39°35' W 074°08'3 6.5
2018-Aug-07 18:00N 39°32' W 074°10'3 6.3
2018-Aug-07 17:29N 39°29' W 074°13'16 6.4
2018-Aug-07 15:00N 39°16' W 074°24'4 6.6
2018-Aug-07 14:23N 39°13' W 074°28'3 6.6
2018-Aug-07 13:56N 39°11' W 074°30'3 6.6
2018-Aug-07 13:30N 39°09' W 074°33'3 6.6
2018-Aug-07 12:59N 39°06' W 074°35'3 6.5
2018-Aug-07 12:29N 39°03' W 074°38'23 5.7
2018-Aug-07 08:25N 38°48' W 075°01'2 4.4
2018-Aug-07 08:00N 38°50' W 075°03'3 5.1
2018-Aug-07 07:30N 38°52' W 075°04'2 4.6
2018-Aug-07 07:00N 38°54' W 075°05'2 4.3
2018-Aug-07 06:30N 38°56' W 075°07'2 4.8
2018-Aug-07 06:00N 38°58' W 075°08'3 5.1
2018-Aug-07 05:30N 39°01' W 075°09'3 5.5
2018-Aug-07 05:00N 39°03' W 075°10'3 6.2
2018-Aug-07 04:30N 39°06' W 075°12'3 7.0
2018-Aug-07 04:00N 39°09' W 075°14'4 7.3
2018-Aug-07 03:30N 39°12' W 075°17'4 7.9
2018-Aug-07 03:00N 39°15' W 075°20'4 8.2
2018-Aug-07 02:30N 39°18' W 075°23'4 7.7
2018-Aug-07 02:00N 39°21' W 075°27'3 7.0
2018-Aug-07 01:30N 39°24' W 075°30'3 6.5
2018-Aug-07 01:00N 39°26' W 075°32'3 5.8
2018-Aug-07 00:30N 39°29' W 075°33'2 3.9
2018-Aug-07 00:00N 39°31' W 075°33'1 1.9
2018-Aug-06 23:30N 39°32' W 075°33'2 4.4
2018-Aug-06 23:00N 39°34' W 075°31'2 3.6
2018-Aug-06 22:30N 39°34' W 075°29'0 0.6
2018-Aug-06 22:00N 39°35' W 075°29'0 0.0
2018-Aug-06 21:30N 39°35' W 075°29'0 0.1
2018-Aug-06 21:00N 39°35' W 075°29'0 0.0
2018-Aug-06 20:30N 39°35' W 075°29'0 0.0
2018-Aug-06 20:00N 39°35' W 075°29'0 0.0
2018-Aug-06 19:30N 39°35' W 075°29'0 0.0
2018-Aug-06 19:00N 39°35' W 075°29'0 0.0
2018-Aug-06 18:30N 39°35' W 075°29'0 0.0
2018-Aug-06 18:00N 39°35' W 075°29'0 0.0
2018-Aug-06 17:30N 39°35' W 075°29'0 0.0
2018-Aug-06 17:00N 39°35' W 075°29'0 0.0
2018-Aug-06 16:30N 39°35' W 075°29'0 0.0
2018-Aug-06 16:00N 39°35' W 075°29'0 0.0
2018-Aug-06 15:30N 39°35' W 075°29'0 0.0
2018-Aug-06 15:00N 39°35' W 075°29'0 0.0
2018-Aug-06 14:30N 39°35' W 075°29'0 0.0
2018-Aug-06 14:00N 39°35' W 075°29'0 0.0
2018-Aug-06 13:30N 39°35' W 075°29'0 0.0
2018-Aug-06 13:00N 39°35' W 075°29'0 0.0
2018-Aug-06 12:30N 39°35' W 075°29'0 0.0
2018-Aug-06 12:00N 39°35' W 075°29'0 0.0
2018-Aug-06 11:30N 39°35' W 075°29'0 0.0
2018-Aug-06 10:59N 39°35' W 075°29'0 0.0
2018-Aug-06 10:30N 39°35' W 075°29'0 0.0
2018-Aug-06 10:00N 39°35' W 075°29'0 0.0
2018-Aug-06 09:30N 39°35' W 075°29'0 0.0
2018-Aug-06 09:00N 39°35' W 075°29'  

Dump ship's entire track history